Athens, West Virginia
Current Conditions -  °F | °C
As of 4:52 PM on Thursday 20 Nov 2014 (Local Time) from KBLF Reporting Station
Clear Clear  
Wind Chill: 32°   Ceiling: Unl
Heat Index: 40°   Visibility: 10mi
Dew Point: 13°   Wind: 14mph
Humidity: 33%   Direction: 280°W
Pressure: 30"   Gusts: 25mph
Location:  37.42°N, 81.02°W
Report Text: KBLF 202152Z AUTO 28012G22KT 10SM CLR 04/M11 A3000 RMK AO2 PK WND 28028/2057 SLP166 T00441106
Loading
Personal Weather Stations






























Interactive Weather Map New forecast layout! Learn more

10-Day Weather Forecast

Advertisements
Track Severe Weather on mobile